Ocean Carrier — CQIB9 — position and weather

sailwx.info

Track history (hours):
 
Tides and Currents Weather Stations Pressure Air Temp Water Temp Dewpoint Dewpoint Depression Visibility Wind Speed Wind Dir Waves Ship Positions

Ocean Carrier

Last reported at 2017-Dec-11 14:59 UTC. Time now 2017-Dec-12 06:27 UTC.
Position N 49°47' W 003°26'.

Length 107 m; draft 8.4 m.

Type: Cargo ship. MMSI: 255805917.

Date/timePositionNaut miles runAvg speedWind from/ knotsBaromVisibWave heightAir tempDewpointWater temp
2017-Dec-11 14:59N 49°47' W 003°26'4 9.1
2017-Dec-11 14:30N 49°49' W 003°20'5 9.0
2017-Dec-11 14:00N 49°51' W 003°14'5 8.7
2017-Dec-11 13:28N 49°53' W 003°08'4 8.7
2017-Dec-11 13:00N 49°55' W 003°02'4 8.5
2017-Dec-11 12:30N 49°58' W 002°56'4 8.4
2017-Dec-11 12:00N 49°59' W 002°50'5 8.6
2017-Dec-11 11:27N 50°00' W 002°43'4 8.8
2017-Dec-11 11:00N 50°01' W 002°37'8811.1
2017-Dec-11 03:02N 50°27' W 000°25'0 8.9
2017-Dec-11 03:00N 50°27' W 000°25'5 9.0
2017-Dec-11 02:30N 50°28' W 000°18'4 8.9
2017-Dec-11 02:00N 50°30' W 000°11'5 9.2
2017-Dec-11 01:30N 50°31' W 000°04'5 9.7
2017-Dec-11 01:00N 50°32' E 000°03'510.1
2017-Dec-11 00:30N 50°34' E 000°11'510.6
2017-Dec-11 00:00N 50°35' E 000°19'611.0
2017-Dec-10 23:30N 50°37' E 000°27'611.3
2017-Dec-10 23:00N 50°39' E 000°35'611.5
2017-Dec-10 22:30N 50°42' E 000°43'611.6
2017-Dec-10 22:00N 50°46' E 000°50'611.4
2017-Dec-10 21:30N 50°49' E 000°58'611.1
2017-Dec-10 20:56N 50°53' E 001°06'510.8
2017-Dec-10 20:30N 50°56' E 001°11'510.1
2017-Dec-10 19:59N 50°59' E 001°17'5 9.3
2017-Dec-10 19:30N 51°02' E 001°23'4 8.6
2017-Dec-10 19:00N 51°05' E 001°28'4 7.8
2017-Dec-10 18:30N 51°07' E 001°33'4 7.1
2017-Dec-10 18:00N 51°10' E 001°37'3 6.9
2017-Dec-10 17:30N 51°12' E 001°41'4 7.1
2017-Dec-10 17:00N 51°14' E 001°45'4 7.5
2017-Dec-10 16:31N 51°18' E 001°48'4 7.4
2017-Dec-10 16:00N 51°21' E 001°51'4 7.5
2017-Dec-10 15:30N 51°24' E 001°54'4 8.2
2017-Dec-10 15:00N 51°28' E 001°57'5 9.2
2017-Dec-10 14:30N 51°31' E 002°02'510.5
2017-Dec-10 14:00N 51°35' E 002°08'149 9.4
2017-Dec-09 22:14N 53°30' E 004°45'2 7.7
2017-Dec-09 21:58N 53°30' E 004°48'110 8.2
2017-Dec-09 08:29N 54°01' E 007°47'4 8.1
2017-Dec-09 07:59N 54°01' E 007°54'4 8.5
2017-Dec-09 07:30N 54°01' E 008°01'5 9.6
2017-Dec-09 07:00N 54°00' E 008°09'510.4
2017-Dec-09 06:30N 54°00' E 008°18'510.6
2017-Dec-09 06:00N 53°59' E 008°26'510.1
2017-Dec-09 05:30N 53°58' E 008°35'510.9
2017-Dec-09 05:00N 53°54' E 008°41'510.4
2017-Dec-09 04:30N 53°51' E 008°48'4 8.9
2017-Dec-09 04:00N 53°51' E 008°55'4 7.7
2017-Dec-09 03:30N 53°52' E 009°02'4 7.5
2017-Dec-09 03:00N 53°53' E 009°08'1 1.8
2017-Dec-09 02:30N 53°54' E 009°09'0 0.0
2017-Dec-09 02:00N 53°54' E 009°09'1 1.1
2017-Dec-09 01:30N 53°54' E 009°09'0 0.7
2017-Dec-09 01:00N 53°54' E 009°10'0 0.9
2017-Dec-09 00:31N 53°55' E 009°10'0 0.2
2017-Dec-09 00:00N 53°55' E 009°10'0 0.4
2017-Dec-08 23:30N 53°55' E 009°11'0 0.0
2017-Dec-08 22:59N 53°55' E 009°11'0 0.0
2017-Dec-08 22:29N 53°55' E 009°11'0 0.0
2017-Dec-08 21:59N 53°55' E 009°11'0 0.0
2017-Dec-08 21:29N 53°55' E 009°11'0 0.0
2017-Dec-08 20:59N 53°55' E 009°11'0 0.0
2017-Dec-08 20:26N 53°55' E 009°11'0 0.0
2017-Dec-08 19:59N 53°55' E 009°11'0 0.0
2017-Dec-08 19:29N 53°55' E 009°11'0 0.0
2017-Dec-08 18:59N 53°55' E 009°11'0 0.0
2017-Dec-08 18:29N 53°55' E 009°11'0 0.1
2017-Dec-08 18:00N 53°55' E 009°11'2 3.6
2017-Dec-08 17:31N 53°56' E 009°13'4 8.1
2017-Dec-08 17:01N 53°59' E 009°17'4 8.2
2017-Dec-08 16:30N 54°03' E 009°18'4 7.8
2017-Dec-08 15:58N 54°07' E 009°20'3 6.8
2017-Dec-08 15:30N 54°10' E 009°24'4 7.8
2017-Dec-08 15:00N 54°11' E 009°30'3 5.0
2017-Dec-08 14:30N 54°12' E 009°34'2 3.6
2017-Dec-08 14:00N 54°13' E 009°36'4 7.7
2017-Dec-08 13:30N 54°17' E 009°38'4 7.2
2017-Dec-08 13:00N 54°19' E 009°43'5 7.7
2017-Dec-08 12:24N 54°22' E 009°50'30 5.5
2017-Dec-08 06:59N 54°34' E 010°36'510.2
2017-Dec-08 06:30N 54°35' E 010°44'510.2
2017-Dec-08 06:00N 54°35' E 010°53'510.0
2017-Dec-08 05:30N 54°36' E 011°01'5 9.7
2017-Dec-08 05:00N 54°36' E 011°10'5 9.8
2017-Dec-08 04:30N 54°34' E 011°17'5 9.6
2017-Dec-08 04:00N 54°32' E 011°25'5 9.6
2017-Dec-08 03:30N 54°30' E 011°32'5 9.9
2017-Dec-08 03:00N 54°28' E 011°40'5 9.9
2017-Dec-08 02:30N 54°27' E 011°48'510.0
2017-Dec-08 02:00N 54°27' E 011°57'5 9.8
2017-Dec-08 01:30N 54°27' E 012°05'4 8.8
2017-Dec-08 01:00N 54°29' E 012°11'69 9.2
2017-Dec-07 17:31N 55°02' E 013°56'2 9.1
2017-Dec-07 17:17N 55°03' E 013°59'5 8.8
2017-Dec-07 16:46N 55°05' E 014°06'3 9.3
2017-Dec-07 16:25N 55°08' E 014°10'4 9.4
2017-Dec-07 15:58N 55°11' E 014°14'10 9.2
2017-Dec-07 14:54N 55°19' E 014°25'4 9.4
2017-Dec-07 14:27N 55°22' E 014°29'13 8.8
2017-Dec-07 12:57N 55°31' E 014°47'4 8.2
2017-Dec-07 12:25N 55°33' E 014°54'9 8.1
2017-Dec-07 11:21N 55°37' E 015°07'3 7.9
2017-Dec-07 11:00N 55°39' E 015°12'4 7.9
2017-Dec-07 10:30N 55°41' E 015°18'4 8.1
2017-Dec-07 10:00N 55°43' E 015°24'4 8.6
2017-Dec-07 09:30N 55°45' E 015°31'4 8.7
2017-Dec-07 09:00N 55°47' E 015°37'4 8.8
2017-Dec-07 08:30N 55°49' E 015°44'4 8.9
2017-Dec-07 08:00N 55°51' E 015°51'5 9.3
2017-Dec-07 07:30N 55°54' E 015°58'5 9.1
2017-Dec-07 07:00N 55°56' E 016°05'4 8.9
2017-Dec-07 06:30N 55°58' E 016°12'5 9.2
2017-Dec-07 06:00N 56°01' E 016°19'5 9.5
2017-Dec-07 05:30N 56°03' E 016°26'5 9.7
2017-Dec-07 05:00N 56°05' E 016°34'5 9.6
2017-Dec-07 04:30N 56°08' E 016°41'  
Track history (hours):
 
Tides and Currents Weather Stations Pressure Air Temp Water Temp Dewpoint Dewpoint Depression Visibility Wind Speed Wind Dir Waves Ship Positions

Ocean Carrier

Last reported at 2017-Dec-11 14:59 UTC. Time now 2017-Dec-12 06:27 UTC.
Position N 49°47' W 003°26'.

Length 107 m; draft 8.4 m.

Type: Cargo ship. MMSI: 255805917.

Date/timePositionNaut miles runAvg speedWind from/ knotsBaromVisibWave heightAir tempDewpointWater temp
2017-Dec-11 14:59N 49°47' W 003°26'4 9.1
2017-Dec-11 14:30N 49°49' W 003°20'5 9.0
2017-Dec-11 14:00N 49°51' W 003°14'5 8.7
2017-Dec-11 13:28N 49°53' W 003°08'4 8.7
2017-Dec-11 13:00N 49°55' W 003°02'4 8.5
2017-Dec-11 12:30N 49°58' W 002°56'4 8.4
2017-Dec-11 12:00N 49°59' W 002°50'5 8.6
2017-Dec-11 11:27N 50°00' W 002°43'4 8.8
2017-Dec-11 11:00N 50°01' W 002°37'8811.1
2017-Dec-11 03:02N 50°27' W 000°25'0 8.9
2017-Dec-11 03:00N 50°27' W 000°25'5 9.0
2017-Dec-11 02:30N 50°28' W 000°18'4 8.9
2017-Dec-11 02:00N 50°30' W 000°11'5 9.2
2017-Dec-11 01:30N 50°31' W 000°04'5 9.7
2017-Dec-11 01:00N 50°32' E 000°03'510.1
2017-Dec-11 00:30N 50°34' E 000°11'510.6
2017-Dec-11 00:00N 50°35' E 000°19'611.0
2017-Dec-10 23:30N 50°37' E 000°27'611.3
2017-Dec-10 23:00N 50°39' E 000°35'611.5
2017-Dec-10 22:30N 50°42' E 000°43'611.6
2017-Dec-10 22:00N 50°46' E 000°50'611.4
2017-Dec-10 21:30N 50°49' E 000°58'611.1
2017-Dec-10 20:56N 50°53' E 001°06'510.8
2017-Dec-10 20:30N 50°56' E 001°11'510.1
2017-Dec-10 19:59N 50°59' E 001°17'5 9.3
2017-Dec-10 19:30N 51°02' E 001°23'4 8.6
2017-Dec-10 19:00N 51°05' E 001°28'4 7.8
2017-Dec-10 18:30N 51°07' E 001°33'4 7.1
2017-Dec-10 18:00N 51°10' E 001°37'3 6.9
2017-Dec-10 17:30N 51°12' E 001°41'4 7.1
2017-Dec-10 17:00N 51°14' E 001°45'4 7.5
2017-Dec-10 16:31N 51°18' E 001°48'4 7.4
2017-Dec-10 16:00N 51°21' E 001°51'4 7.5
2017-Dec-10 15:30N 51°24' E 001°54'4 8.2
2017-Dec-10 15:00N 51°28' E 001°57'5 9.2
2017-Dec-10 14:30N 51°31' E 002°02'510.5
2017-Dec-10 14:00N 51°35' E 002°08'149 9.4
2017-Dec-09 22:14N 53°30' E 004°45'2 7.7
2017-Dec-09 21:58N 53°30' E 004°48'110 8.2
2017-Dec-09 08:29N 54°01' E 007°47'4 8.1
2017-Dec-09 07:59N 54°01' E 007°54'4 8.5
2017-Dec-09 07:30N 54°01' E 008°01'5 9.6
2017-Dec-09 07:00N 54°00' E 008°09'510.4
2017-Dec-09 06:30N 54°00' E 008°18'510.6
2017-Dec-09 06:00N 53°59' E 008°26'510.1
2017-Dec-09 05:30N 53°58' E 008°35'510.9
2017-Dec-09 05:00N 53°54' E 008°41'510.4
2017-Dec-09 04:30N 53°51' E 008°48'4 8.9
2017-Dec-09 04:00N 53°51' E 008°55'4 7.7
2017-Dec-09 03:30N 53°52' E 009°02'4 7.5
2017-Dec-09 03:00N 53°53' E 009°08'1 1.8
2017-Dec-09 02:30N 53°54' E 009°09'0 0.0
2017-Dec-09 02:00N 53°54' E 009°09'1 1.1
2017-Dec-09 01:30N 53°54' E 009°09'0 0.7
2017-Dec-09 01:00N 53°54' E 009°10'0 0.9
2017-Dec-09 00:31N 53°55' E 009°10'0 0.2
2017-Dec-09 00:00N 53°55' E 009°10'0 0.4
2017-Dec-08 23:30N 53°55' E 009°11'0 0.0
2017-Dec-08 22:59N 53°55' E 009°11'0 0.0
2017-Dec-08 22:29N 53°55' E 009°11'0 0.0
2017-Dec-08 21:59N 53°55' E 009°11'0 0.0
2017-Dec-08 21:29N 53°55' E 009°11'0 0.0
2017-Dec-08 20:59N 53°55' E 009°11'0 0.0
2017-Dec-08 20:26N 53°55' E 009°11'0 0.0
2017-Dec-08 19:59N 53°55' E 009°11'0 0.0
2017-Dec-08 19:29N 53°55' E 009°11'0 0.0
2017-Dec-08 18:59N 53°55' E 009°11'0 0.0
2017-Dec-08 18:29N 53°55' E 009°11'0 0.1
2017-Dec-08 18:00N 53°55' E 009°11'2 3.6
2017-Dec-08 17:31N 53°56' E 009°13'4 8.1
2017-Dec-08 17:01N 53°59' E 009°17'4 8.2
2017-Dec-08 16:30N 54°03' E 009°18'4 7.8
2017-Dec-08 15:58N 54°07' E 009°20'3 6.8
2017-Dec-08 15:30N 54°10' E 009°24'4 7.8
2017-Dec-08 15:00N 54°11' E 009°30'3 5.0
2017-Dec-08 14:30N 54°12' E 009°34'2 3.6
2017-Dec-08 14:00N 54°13' E 009°36'4 7.7
2017-Dec-08 13:30N 54°17' E 009°38'4 7.2
2017-Dec-08 13:00N 54°19' E 009°43'5 7.7
2017-Dec-08 12:24N 54°22' E 009°50'30 5.5
2017-Dec-08 06:59N 54°34' E 010°36'510.2
2017-Dec-08 06:30N 54°35' E 010°44'510.2
2017-Dec-08 06:00N 54°35' E 010°53'510.0
2017-Dec-08 05:30N 54°36' E 011°01'5 9.7
2017-Dec-08 05:00N 54°36' E 011°10'5 9.8
2017-Dec-08 04:30N 54°34' E 011°17'5 9.6
2017-Dec-08 04:00N 54°32' E 011°25'5 9.6
2017-Dec-08 03:30N 54°30' E 011°32'5 9.9
2017-Dec-08 03:00N 54°28' E 011°40'5 9.9
2017-Dec-08 02:30N 54°27' E 011°48'510.0
2017-Dec-08 02:00N 54°27' E 011°57'5 9.8
2017-Dec-08 01:30N 54°27' E 012°05'4 8.8
2017-Dec-08 01:00N 54°29' E 012°11'69 9.2
2017-Dec-07 17:31N 55°02' E 013°56'2 9.1
2017-Dec-07 17:17N 55°03' E 013°59'5 8.8
2017-Dec-07 16:46N 55°05' E 014°06'3 9.3
2017-Dec-07 16:25N 55°08' E 014°10'4 9.4
2017-Dec-07 15:58N 55°11' E 014°14'10 9.2
2017-Dec-07 14:54N 55°19' E 014°25'4 9.4
2017-Dec-07 14:27N 55°22' E 014°29'13 8.8
2017-Dec-07 12:57N 55°31' E 014°47'4 8.2
2017-Dec-07 12:25N 55°33' E 014°54'9 8.1
2017-Dec-07 11:21N 55°37' E 015°07'3 7.9
2017-Dec-07 11:00N 55°39' E 015°12'4 7.9
2017-Dec-07 10:30N 55°41' E 015°18'4 8.1
2017-Dec-07 10:00N 55°43' E 015°24'4 8.6
2017-Dec-07 09:30N 55°45' E 015°31'4 8.7
2017-Dec-07 09:00N 55°47' E 015°37'4 8.8
2017-Dec-07 08:30N 55°49' E 015°44'4 8.9
2017-Dec-07 08:00N 55°51' E 015°51'5 9.3
2017-Dec-07 07:30N 55°54' E 015°58'5 9.1
2017-Dec-07 07:00N 55°56' E 016°05'4 8.9
2017-Dec-07 06:30N 55°58' E 016°12'5 9.2
2017-Dec-07 06:00N 56°01' E 016°19'5 9.5
2017-Dec-07 05:30N 56°03' E 016°26'5 9.7
2017-Dec-07 05:00N 56°05' E 016°34'5 9.6
2017-Dec-07 04:30N 56°08' E 016°41'  

Dump ship's entire track history